sensor_id;sensor_type;location;lat;lon;timestamp;P1;durP1;ratioP1;P2;durP2;ratioP2
28007;SDS011;15333;50.010;20.020;2023-11-21T00:01:05;23.38;;;13.20;;
28007;SDS011;15333;50.010;20.020;2023-11-21T00:04:15;21.17;;;14.10;;
28007;SDS011;15333;50.010;20.020;2023-11-21T00:07:16;21.70;;;12.85;;
28007;SDS011;15333;50.010;20.020;2023-11-21T00:10:17;23.50;;;14.40;;
28007;SDS011;15333;50.010;20.020;2023-11-21T00:13:18;23.50;;;14.32;;
28007;SDS011;15333;50.010;20.020;2023-11-21T00:16:19;24.30;;;14.05;;
28007;SDS011;15333;50.010;20.020;2023-11-21T00:19:19;19.92;;;13.63;;
28007;SDS011;15333;50.010;20.020;2023-11-21T00:22:20;21.00;;;12.95;;
28007;SDS011;15333;50.010;20.020;2023-11-21T00:25:21;18.90;;;12.02;;
28007;SDS011;15333;50.010;20.020;2023-11-21T00:28:22;20.92;;;11.60;;
28007;SDS011;15333;50.010;20.020;2023-11-21T00:31:23;18.60;;;11.68;;
28007;SDS011;15333;50.010;20.020;2023-11-21T00:34:25;16.90;;;11.98;;
28007;SDS011;15333;50.010;20.020;2023-11-21T00:37:25;18.73;;;11.68;;
28007;SDS011;15333;50.010;20.020;2023-11-21T00:40:26;20.88;;;11.50;;
28007;SDS011;15333;50.010;20.020;2023-11-21T00:43:28;20.80;;;12.05;;
28007;SDS011;15333;50.010;20.020;2023-11-21T00:46:29;19.20;;;12.18;;
28007;SDS011;15333;50.010;20.020;2023-11-21T00:49:29;16.08;;;11.60;;
28007;SDS011;15333;50.010;20.020;2023-11-21T00:52:30;17.88;;;12.13;;
28007;SDS011;15333;50.010;20.020;2023-11-21T00:55:31;19.25;;;12.00;;
28007;SDS011;15333;50.010;20.020;2023-11-21T00:58:33;18.48;;;13.13;;
28007;SDS011;15333;50.010;20.020;2023-11-21T01:01:33;22.55;;;14.05;;
28007;SDS011;15333;50.010;20.020;2023-11-21T01:04:34;23.25;;;15.93;;
28007;SDS011;15333;50.010;20.020;2023-11-21T01:07:35;26.88;;;17.52;;
28007;SDS011;15333;50.010;20.020;2023-11-21T01:10:37;23.50;;;15.82;;
28007;SDS011;15333;50.010;20.020;2023-11-21T01:13:41;16.50;;;12.50;;
28007;SDS011;15333;50.010;20.020;2023-11-21T01:16:43;16.75;;;11.32;;
28007;SDS011;15333;50.010;20.020;2023-11-21T01:19:43;20.83;;;13.73;;
28007;SDS011;15333;50.010;20.020;2023-11-21T01:22:44;21.83;;;14.95;;
28007;SDS011;15333;50.010;20.020;2023-11-21T01:25:45;21.10;;;14.98;;
28007;SDS011;15333;50.010;20.020;2023-11-21T01:28:46;27.35;;;16.65;;
28007;SDS011;15333;50.010;20.020;2023-11-21T01:31:49;26.85;;;17.48;;
28007;SDS011;15333;50.010;20.020;2023-11-21T01:34:50;27.63;;;17.58;;
28007;SDS011;15333;50.010;20.020;2023-11-21T01:37:51;28.75;;;18.00;;
28007;SDS011;15333;50.010;20.020;2023-11-21T01:40:52;25.30;;;16.17;;
28007;SDS011;15333;50.010;20.020;2023-11-21T01:43:53;27.33;;;17.02;;
28007;SDS011;15333;50.010;20.020;2023-11-21T01:46:55;28.65;;;17.13;;
28007;SDS011;15333;50.010;20.020;2023-11-21T01:49:58;28.25;;;16.38;;
28007;SDS011;15333;50.010;20.020;2023-11-21T01:52:59;26.50;;;16.38;;
28007;SDS011;15333;50.010;20.020;2023-11-21T01:56:01;22.13;;;14.85;;
28007;SDS011;15333;50.010;20.020;2023-11-21T01:59:02;25.70;;;16.25;;
28007;SDS011;15333;50.010;20.020;2023-11-21T02:02:06;24.90;;;17.45;;
28007;SDS011;15333;50.010;20.020;2023-11-21T02:05:10;28.00;;;19.45;;
28007;SDS011;15333;50.010;20.020;2023-11-21T02:08:13;30.20;;;20.70;;
28007;SDS011;15333;50.010;20.020;2023-11-21T02:11:13;36.03;;;22.15;;
28007;SDS011;15333;50.010;20.020;2023-11-21T02:14:14;33.80;;;21.30;;
28007;SDS011;15333;50.010;20.020;2023-11-21T02:17:15;31.63;;;21.50;;
28007;SDS011;15333;50.010;20.020;2023-11-21T02:20:18;30.20;;;20.38;;
28007;SDS011;15333;50.010;20.020;2023-11-21T02:23:20;28.98;;;18.80;;
28007;SDS011;15333;50.010;20.020;2023-11-21T02:26:21;26.95;;;17.00;;
28007;SDS011;15333;50.010;20.020;2023-11-21T02:29:22;24.45;;;17.70;;
28007;SDS011;15333;50.010;20.020;2023-11-21T02:32:28;25.80;;;17.42;;
28007;SDS011;15333;50.010;20.020;2023-11-21T02:35:29;24.05;;;16.38;;
28007;SDS011;15333;50.010;20.020;2023-11-21T02:38:32;21.35;;;16.05;;
28007;SDS011;15333;50.010;20.020;2023-11-21T02:41:33;26.60;;;16.52;;
28007;SDS011;15333;50.010;20.020;2023-11-21T02:44:34;21.83;;;14.73;;
28007;SDS011;15333;50.010;20.020;2023-11-21T02:47:36;21.33;;;12.55;;
28007;SDS011;15333;50.010;20.020;2023-11-21T02:50:36;22.95;;;14.15;;
28007;SDS011;15333;50.010;20.020;2023-11-21T02:53:38;21.17;;;12.85;;
28007;SDS011;15333;50.010;20.020;2023-11-21T02:56:39;24.02;;;12.77;;
28007;SDS011;15333;50.010;20.020;2023-11-21T02:59:40;24.38;;;12.40;;
28007;SDS011;15333;50.010;20.020;2023-11-21T03:02:41;17.33;;;10.63;;
28007;SDS011;15333;50.010;20.020;2023-11-21T03:05:42;19.17;;;11.50;;
28007;SDS011;15333;50.010;20.020;2023-11-21T03:08:43;18.50;;;10.90;;
28007;SDS011;15333;50.010;20.020;2023-11-21T03:11:44;21.58;;;11.32;;
28007;SDS011;15333;50.010;20.020;2023-11-21T03:14:45;15.27;;;10.38;;
28007;SDS011;15333;50.010;20.020;2023-11-21T03:17:45;15.45;;;10.13;;
28007;SDS011;15333;50.010;20.020;2023-11-21T03:20:49;15.77;;;9.95;;
28007;SDS011;15333;50.010;20.020;2023-11-21T03:23:50;18.35;;;10.00;;
28007;SDS011;15333;50.010;20.020;2023-11-21T03:26:52;15.68;;;9.45;;
28007;SDS011;15333;50.010;20.020;2023-11-21T03:29:53;14.10;;;9.20;;
28007;SDS011;15333;50.010;20.020;2023-11-21T03:32:55;18.80;;;9.23;;
28007;SDS011;15333;50.010;20.020;2023-11-21T03:35:55;16.73;;;10.73;;
28007;SDS011;15333;50.010;20.020;2023-11-21T03:38:56;16.23;;;9.48;;
28007;SDS011;15333;50.010;20.020;2023-11-21T03:41:57;17.83;;;9.85;;
28007;SDS011;15333;50.010;20.020;2023-11-21T03:44:58;16.08;;;8.68;;
28007;SDS011;15333;50.010;20.020;2023-11-21T03:47:59;14.45;;;9.13;;
28007;SDS011;15333;50.010;20.020;2023-11-21T03:51:03;13.65;;;8.98;;
28007;SDS011;15333;50.010;20.020;2023-11-21T03:54:04;14.45;;;7.88;;
28007;SDS011;15333;50.010;20.020;2023-11-21T03:57:04;18.15;;;8.52;;
28007;SDS011;15333;50.010;20.020;2023-11-21T04:00:07;14.07;;;8.73;;
28007;SDS011;15333;50.010;20.020;2023-11-21T04:03:14;14.15;;;8.50;;
28007;SDS011;15333;50.010;20.020;2023-11-21T04:06:16;14.05;;;8.35;;
28007;SDS011;15333;50.010;20.020;2023-11-21T04:09:17;17.88;;;8.25;;
28007;SDS011;15333;50.010;20.020;2023-11-21T04:12:19;13.57;;;8.07;;
28007;SDS011;15333;50.010;20.020;2023-11-21T04:15:20;16.33;;;9.10;;
28007;SDS011;15333;50.010;20.020;2023-11-21T04:18:21;14.85;;;8.40;;
28007;SDS011;15333;50.010;20.020;2023-11-21T04:21:21;13.60;;;8.35;;
28007;SDS011;15333;50.010;20.020;2023-11-21T04:24:22;18.33;;;9.30;;
28007;SDS011;15333;50.010;20.020;2023-11-21T04:27:23;14.95;;;9.10;;
28007;SDS011;15333;50.010;20.020;2023-11-21T04:30:24;14.20;;;8.32;;
28007;SDS011;15333;50.010;20.020;2023-11-21T04:33:25;16.52;;;8.73;;
28007;SDS011;15333;50.010;20.020;2023-11-21T04:36:26;18.58;;;9.45;;
28007;SDS011;15333;50.010;20.020;2023-11-21T04:39:27;18.88;;;9.13;;
28007;SDS011;15333;50.010;20.020;2023-11-21T04:42:28;17.27;;;8.93;;
28007;SDS011;15333;50.010;20.020;2023-11-21T04:45:29;13.45;;;9.00;;
28007;SDS011;15333;50.010;20.020;2023-11-21T04:48:30;15.55;;;9.50;;
28007;SDS011;15333;50.010;20.020;2023-11-21T04:51:31;15.57;;;8.93;;
28007;SDS011;15333;50.010;20.020;2023-11-21T04:54:32;18.85;;;9.40;;
28007;SDS011;15333;50.010;20.020;2023-11-21T04:57:33;17.45;;;9.57;;
28007;SDS011;15333;50.010;20.020;2023-11-21T05:00:34;17.60;;;9.75;;
28007;SDS011;15333;50.010;20.020;2023-11-21T05:03:36;19.05;;;10.15;;
28007;SDS011;15333;50.010;20.020;2023-11-21T05:06:39;17.80;;;10.82;;
28007;SDS011;15333;50.010;20.020;2023-11-21T05:09:43;18.55;;;10.95;;
28007;SDS011;15333;50.010;20.020;2023-11-21T05:12:46;21.70;;;11.27;;
28007;SDS011;15333;50.010;20.020;2023-11-21T05:15:47;23.58;;;11.65;;
28007;SDS011;15333;50.010;20.020;2023-11-21T05:18:48;20.30;;;12.18;;
28007;SDS011;15333;50.010;20.020;2023-11-21T05:21:51;25.98;;;12.98;;
28007;SDS011;15333;50.010;20.020;2023-11-21T05:24:52;23.45;;;13.77;;
28007;SDS011;15333;50.010;20.020;2023-11-21T05:27:52;21.73;;;12.23;;
28007;SDS011;15333;50.010;20.020;2023-11-21T05:30:55;21.13;;;12.70;;
28007;SDS011;15333;50.010;20.020;2023-11-21T05:33:56;25.05;;;12.82;;
28007;SDS011;15333;50.010;20.020;2023-11-21T05:36:57;21.30;;;13.23;;
28007;SDS011;15333;50.010;20.020;2023-11-21T05:39:58;24.77;;;13.38;;
28007;SDS011;15333;50.010;20.020;2023-11-21T05:43:00;23.15;;;13.40;;
28007;SDS011;15333;50.010;20.020;2023-11-21T05:46:01;23.83;;;13.60;;
28007;SDS011;15333;50.010;20.020;2023-11-21T05:49:02;20.42;;;13.73;;
28007;SDS011;15333;50.010;20.020;2023-11-21T05:52:03;24.95;;;15.93;;
28007;SDS011;15333;50.010;20.020;2023-11-21T05:55:05;28.90;;;16.48;;
28007;SDS011;15333;50.010;20.020;2023-11-21T05:58:07;29.05;;;16.50;;
28007;SDS011;15333;50.010;20.020;2023-11-21T06:01:09;28.38;;;16.88;;
28007;SDS011;15333;50.010;20.020;2023-11-21T06:04:13;33.38;;;18.25;;
28007;SDS011;15333;50.010;20.020;2023-11-21T06:07:15;32.25;;;18.55;;
28007;SDS011;15333;50.010;20.020;2023-11-21T06:10:16;30.20;;;18.02;;
28007;SDS011;15333;50.010;20.020;2023-11-21T06:13:18;32.00;;;18.08;;
28007;SDS011;15333;50.010;20.020;2023-11-21T06:16:24;34.90;;;18.58;;
28007;SDS011;15333;50.010;20.020;2023-11-21T06:19:25;31.48;;;19.05;;
28007;SDS011;15333;50.010;20.020;2023-11-21T06:22:26;27.73;;;18.48;;
28007;SDS011;15333;50.010;20.020;2023-11-21T06:25:27;36.78;;;19.42;;
28007;SDS011;15333;50.010;20.020;2023-11-21T06:28:28;35.35;;;19.25;;
28007;SDS011;15333;50.010;20.020;2023-11-21T06:31:29;31.40;;;18.80;;
28007;SDS011;15333;50.010;20.020;2023-11-21T06:34:33;31.20;;;18.05;;
28007;SDS011;15333;50.010;20.020;2023-11-21T06:37:33;31.60;;;18.88;;
28007;SDS011;15333;50.010;20.020;2023-11-21T06:40:34;31.17;;;19.15;;
28007;SDS011;15333;50.010;20.020;2023-11-21T06:43:35;31.00;;;17.42;;
28007;SDS011;15333;50.010;20.020;2023-11-21T06:46:36;29.65;;;17.55;;
28007;SDS011;15333;50.010;20.020;2023-11-21T06:49:38;30.17;;;17.90;;
28007;SDS011;15333;50.010;20.020;2023-11-21T06:52:39;26.13;;;17.73;;
28007;SDS011;15333;50.010;20.020;2023-11-21T06:55:40;28.38;;;18.27;;
28007;SDS011;15333;50.010;20.020;2023-11-21T06:58:41;27.75;;;18.17;;
28007;SDS011;15333;50.010;20.020;2023-11-21T07:01:42;32.33;;;19.05;;
28007;SDS011;15333;50.010;20.020;2023-11-21T07:04:44;26.98;;;18.73;;
28007;SDS011;15333;50.010;20.020;2023-11-21T07:07:46;26.67;;;18.10;;
28007;SDS011;15333;50.010;20.020;2023-11-21T07:10:48;26.42;;;18.50;;
28007;SDS011;15333;50.010;20.020;2023-11-21T07:13:49;28.17;;;19.55;;
28007;SDS011;15333;50.010;20.020;2023-11-21T07:16:51;26.55;;;18.98;;
28007;SDS011;15333;50.010;20.020;2023-11-21T07:19:53;27.88;;;18.02;;
28007;SDS011;15333;50.010;20.020;2023-11-21T07:22:55;27.75;;;17.63;;
28007;SDS011;15333;50.010;20.020;2023-11-21T07:25:56;27.35;;;17.40;;
28007;SDS011;15333;50.010;20.020;2023-11-21T07:28:57;30.77;;;18.92;;
28007;SDS011;15333;50.010;20.020;2023-11-21T07:31:58;28.00;;;18.58;;
28007;SDS011;15333;50.010;20.020;2023-11-21T07:35:00;23.75;;;17.63;;
28007;SDS011;15333;50.010;20.020;2023-11-21T07:38:02;28.60;;;18.85;;
28007;SDS011;15333;50.010;20.020;2023-11-21T07:41:04;31.88;;;18.90;;
28007;SDS011;15333;50.010;20.020;2023-11-21T07:44:05;28.90;;;18.65;;
28007;SDS011;15333;50.010;20.020;2023-11-21T07:47:06;28.70;;;19.23;;
28007;SDS011;15333;50.010;20.020;2023-11-21T07:50:07;31.88;;;20.27;;
28007;SDS011;15333;50.010;20.020;2023-11-21T07:53:09;28.15;;;17.98;;
28007;SDS011;15333;50.010;20.020;2023-11-21T07:56:10;29.70;;;19.85;;
28007;SDS011;15333;50.010;20.020;2023-11-21T07:59:10;29.73;;;18.88;;
28007;SDS011;15333;50.010;20.020;2023-11-21T08:02:13;31.13;;;18.95;;
28007;SDS011;15333;50.010;20.020;2023-11-21T08:05:13;32.10;;;20.00;;
28007;SDS011;15333;50.010;20.020;2023-11-21T08:08:16;35.22;;;20.75;;
28007;SDS011;15333;50.010;20.020;2023-11-21T08:11:18;33.65;;;20.83;;
28007;SDS011;15333;50.010;20.020;2023-11-21T08:14:20;37.22;;;22.48;;
28007;SDS011;15333;50.010;20.020;2023-11-21T08:17:20;39.13;;;24.80;;
28007;SDS011;15333;50.010;20.020;2023-11-21T08:20:22;43.75;;;24.92;;
28007;SDS011;15333;50.010;20.020;2023-11-21T08:23:23;40.83;;;26.40;;
28007;SDS011;15333;50.010;20.020;2023-11-21T08:26:27;44.13;;;28.48;;
28007;SDS011;15333;50.010;20.020;2023-11-21T08:29:28;47.53;;;27.33;;
28007;SDS011;15333;50.010;20.020;2023-11-21T08:32:29;48.22;;;29.05;;
28007;SDS011;15333;50.010;20.020;2023-11-21T08:35:33;43.85;;;27.33;;
28007;SDS011;15333;50.010;20.020;2023-11-21T08:38:35;39.95;;;25.45;;
28007;SDS011;15333;50.010;20.020;2023-11-21T08:41:39;34.83;;;23.52;;
28007;SDS011;15333;50.010;20.020;2023-11-21T08:44:40;31.60;;;21.67;;
28007;SDS011;15333;50.010;20.020;2023-11-21T08:47:41;37.17;;;22.05;;
28007;SDS011;15333;50.010;20.020;2023-11-21T08:50:44;34.85;;;22.55;;
28007;SDS011;15333;50.010;20.020;2023-11-21T08:53:45;44.20;;;22.75;;
28007;SDS011;15333;50.010;20.020;2023-11-21T08:56:46;28.50;;;20.88;;
28007;SDS011;15333;50.010;20.020;2023-11-21T08:59:47;32.22;;;20.67;;
28007;SDS011;15333;50.010;20.020;2023-11-21T09:02:48;35.17;;;20.10;;
28007;SDS011;15333;50.010;20.020;2023-11-21T09:05:49;28.90;;;20.25;;
28007;SDS011;15333;50.010;20.020;2023-11-21T09:08:50;34.08;;;20.15;;
28007;SDS011;15333;50.010;20.020;2023-11-21T09:11:51;32.38;;;20.05;;
28007;SDS011;15333;50.010;20.020;2023-11-21T09:14:52;35.70;;;22.35;;
28007;SDS011;15333;50.010;20.020;2023-11-21T09:17:53;36.95;;;21.67;;
28007;SDS011;15333;50.010;20.020;2023-11-21T09:20:54;30.50;;;21.55;;
28007;SDS011;15333;50.010;20.020;2023-11-21T09:23:54;36.85;;;22.55;;
28007;SDS011;15333;50.010;20.020;2023-11-21T09:26:55;36.53;;;22.73;;
28007;SDS011;15333;50.010;20.020;2023-11-21T09:29:56;36.17;;;21.88;;
28007;SDS011;15333;50.010;20.020;2023-11-21T09:32:58;39.85;;;23.88;;
28007;SDS011;15333;50.010;20.020;2023-11-21T09:35:59;34.72;;;22.75;;
28007;SDS011;15333;50.010;20.020;2023-11-21T09:39:01;39.50;;;24.02;;
28007;SDS011;15333;50.010;20.020;2023-11-21T09:42:12;34.47;;;22.23;;
28007;SDS011;15333;50.010;20.020;2023-11-21T09:45:29;39.33;;;24.05;;
28007;SDS011;15333;50.010;20.020;2023-11-21T09:48:34;34.92;;;23.58;;
28007;SDS011;15333;50.010;20.020;2023-11-21T09:51:43;39.30;;;24.45;;
28007;SDS011;15333;50.010;20.020;2023-11-21T09:54:44;33.75;;;22.17;;
28007;SDS011;15333;50.010;20.020;2023-11-21T09:57:47;36.30;;;24.00;;
28007;SDS011;15333;50.010;20.020;2023-11-21T10:00:49;40.38;;;25.52;;
28007;SDS011;15333;50.010;20.020;2023-11-21T10:03:54;43.17;;;25.13;;
28007;SDS011;15333;50.010;20.020;2023-11-21T10:06:57;36.20;;;25.25;;
28007;SDS011;15333;50.010;20.020;2023-11-21T10:09:58;40.25;;;25.85;;
28007;SDS011;15333;50.010;20.020;2023-11-21T10:13:01;41.88;;;25.40;;
28007;SDS011;15333;50.010;20.020;2023-11-21T10:16:07;35.50;;;24.63;;
28007;SDS011;15333;50.010;20.020;2023-11-21T10:19:12;39.70;;;24.13;;
28007;SDS011;15333;50.010;20.020;2023-11-21T10:22:16;37.83;;;23.70;;
28007;SDS011;15333;50.010;20.020;2023-11-21T10:25:17;39.45;;;23.15;;
28007;SDS011;15333;50.010;20.020;2023-11-21T10:28:21;40.63;;;22.85;;
28007;SDS011;15333;50.010;20.020;2023-11-21T10:31:21;39.15;;;21.08;;
28007;SDS011;15333;50.010;20.020;2023-11-21T10:34:24;37.55;;;20.63;;
28007;SDS011;15333;50.010;20.020;2023-11-21T10:37:28;31.10;;;18.45;;
28007;SDS011;15333;50.010;20.020;2023-11-21T10:40:28;31.95;;;18.08;;
28007;SDS011;15333;50.010;20.020;2023-11-21T10:43:29;28.92;;;17.17;;
28007;SDS011;15333;50.010;20.020;2023-11-21T10:46:31;22.30;;;16.13;;
28007;SDS011;15333;50.010;20.020;2023-11-21T10:49:32;29.00;;;16.52;;
28007;SDS011;15333;50.010;20.020;2023-11-21T10:52:33;26.50;;;15.70;;
28007;SDS011;15333;50.010;20.020;2023-11-21T10:55:36;23.83;;;15.48;;
28007;SDS011;15333;50.010;20.020;2023-11-21T10:58:37;23.63;;;13.80;;
28007;SDS011;15333;50.010;20.020;2023-11-21T11:01:39;22.92;;;13.77;;
28007;SDS011;15333;50.010;20.020;2023-11-21T11:04:40;26.27;;;14.07;;
28007;SDS011;15333;50.010;20.020;2023-11-21T11:07:41;26.40;;;16.35;;
28007;SDS011;15333;50.010;20.020;2023-11-21T11:10:47;27.95;;;16.42;;
28007;SDS011;15333;50.010;20.020;2023-11-21T11:13:51;28.73;;;15.63;;
28007;SDS011;15333;50.010;20.020;2023-11-21T11:16:54;22.73;;;15.00;;
28007;SDS011;15333;50.010;20.020;2023-11-21T11:19:56;27.00;;;15.73;;
28007;SDS011;15333;50.010;20.020;2023-11-21T11:36:54;24.52;;;15.57;;
28007;SDS011;15333;50.010;20.020;2023-11-21T11:40:05;29.65;;;15.45;;
28007;SDS011;15333;50.010;20.020;2023-11-21T11:43:07;27.25;;;16.42;;
28007;SDS011;15333;50.010;20.020;2023-11-21T11:46:08;23.58;;;15.30;;
28007;SDS011;15333;50.010;20.020;2023-11-21T11:49:09;23.42;;;14.45;;
28007;SDS011;15333;50.010;20.020;2023-11-21T11:55:32;23.60;;;15.38;;
28007;SDS011;15333;50.010;20.020;2023-11-21T11:58:37;23.85;;;13.98;;
28007;SDS011;15333;50.010;20.020;2023-11-21T12:01:39;17.83;;;11.73;;
28007;SDS011;15333;50.010;20.020;2023-11-21T12:04:46;22.10;;;12.13;;
28007;SDS011;15333;50.010;20.020;2023-11-21T12:10:48;17.90;;;11.63;;
28007;SDS011;15333;50.010;20.020;2023-11-21T12:13:49;16.02;;;10.60;;
28007;SDS011;15333;50.010;20.020;2023-11-21T12:16:52;17.60;;;10.05;;
28007;SDS011;15333;50.010;20.020;2023-11-21T12:19:54;11.85;;;8.95;;
28007;SDS011;15333;50.010;20.020;2023-11-21T12:23:05;13.13;;;9.23;;
28007;SDS011;15333;50.010;20.020;2023-11-21T12:26:06;17.70;;;8.95;;
28007;SDS011;15333;50.010;20.020;2023-11-21T12:29:07;14.95;;;7.88;;
28007;SDS011;15333;50.010;20.020;2023-11-21T12:32:11;10.98;;;6.80;;
28007;SDS011;15333;50.010;20.020;2023-11-21T12:35:12;11.40;;;7.35;;
28007;SDS011;15333;50.010;20.020;2023-11-21T12:38:13;12.65;;;7.38;;
28007;SDS011;15333;50.010;20.020;2023-11-21T12:41:15;14.35;;;8.32;;
28007;SDS011;15333;50.010;20.020;2023-11-21T12:44:17;18.00;;;9.32;;
28007;SDS011;15333;50.010;20.020;2023-11-21T12:47:19;20.30;;;9.48;;
28007;SDS011;15333;50.010;20.020;2023-11-21T12:50:28;15.07;;;9.73;;
28007;SDS011;15333;50.010;20.020;2023-11-21T12:53:33;15.77;;;10.00;;
28007;SDS011;15333;50.010;20.020;2023-11-21T12:56:39;21.08;;;11.48;;
28007;SDS011;15333;50.010;20.020;2023-11-21T12:59:40;20.95;;;11.50;;
28007;SDS011;15333;50.010;20.020;2023-11-21T13:02:43;18.05;;;11.65;;
28007;SDS011;15333;50.010;20.020;2023-11-21T13:05:44;22.20;;;11.63;;
28007;SDS011;15333;50.010;20.020;2023-11-21T13:08:46;23.17;;;12.20;;
28007;SDS011;15333;50.010;20.020;2023-11-21T13:11:47;21.23;;;11.70;;
28007;SDS011;15333;50.010;20.020;2023-11-21T13:14:48;23.88;;;12.25;;
28007;SDS011;15333;50.010;20.020;2023-11-21T13:17:50;25.40;;;14.95;;
28007;SDS011;15333;50.010;20.020;2023-11-21T13:20:55;21.15;;;11.75;;
28007;SDS011;15333;50.010;20.020;2023-11-21T13:23:58;18.92;;;12.32;;
28007;SDS011;15333;50.010;20.020;2023-11-21T13:26:59;21.52;;;12.20;;
28007;SDS011;15333;50.010;20.020;2023-11-21T13:29:59;21.80;;;12.95;;
28007;SDS011;15333;50.010;20.020;2023-11-21T13:33:01;18.23;;;11.95;;
28007;SDS011;15333;50.010;20.020;2023-11-21T13:36:06;16.75;;;12.05;;
28007;SDS011;15333;50.010;20.020;2023-11-21T13:39:09;20.08;;;12.75;;
28007;SDS011;15333;50.010;20.020;2023-11-21T13:42:15;20.30;;;14.15;;
28007;SDS011;15333;50.010;20.020;2023-11-21T13:45:17;17.48;;;12.70;;
28007;SDS011;15333;50.010;20.020;2023-11-21T13:48:20;19.70;;;12.90;;
28007;SDS011;15333;50.010;20.020;2023-11-21T13:51:28;17.13;;;12.48;;
28007;SDS011;15333;50.010;20.020;2023-11-21T13:54:40;20.98;;;13.35;;
28007;SDS011;15333;50.010;20.020;2023-11-21T13:57:42;23.90;;;15.20;;
28007;SDS011;15333;50.010;20.020;2023-11-21T14:00:50;22.52;;;14.35;;
28007;SDS011;15333;50.010;20.020;2023-11-21T14:04:03;26.65;;;14.93;;
28007;SDS011;15333;50.010;20.020;2023-11-21T14:07:20;23.20;;;15.15;;
28007;SDS011;15333;50.010;20.020;2023-11-21T14:10:32;21.85;;;14.95;;
28007;SDS011;15333;50.010;20.020;2023-11-21T14:13:49;20.67;;;14.65;;
28007;SDS011;15333;50.010;20.020;2023-11-21T14:16:51;24.10;;;15.13;;
28007;SDS011;15333;50.010;20.020;2023-11-21T14:19:52;22.92;;;14.65;;
28007;SDS011;15333;50.010;20.020;2023-11-21T14:22:56;20.77;;;14.85;;
28007;SDS011;15333;50.010;20.020;2023-11-21T14:25:56;26.02;;;15.70;;
28007;SDS011;15333;50.010;20.020;2023-11-21T14:28:58;22.60;;;14.68;;
28007;SDS011;15333;50.010;20.020;2023-11-21T14:31:59;23.45;;;16.27;;
28007;SDS011;15333;50.010;20.020;2023-11-21T14:35:00;26.65;;;16.50;;
28007;SDS011;15333;50.010;20.020;2023-11-21T14:38:01;25.80;;;16.95;;
28007;SDS011;15333;50.010;20.020;2023-11-21T14:41:05;29.17;;;18.52;;
28007;SDS011;15333;50.010;20.020;2023-11-21T14:44:08;25.98;;;19.10;;
28007;SDS011;15333;50.010;20.020;2023-11-21T14:47:12;28.65;;;18.88;;
28007;SDS011;15333;50.010;20.020;2023-11-21T14:50:15;26.52;;;18.27;;
28007;SDS011;15333;50.010;20.020;2023-11-21T14:53:36;29.88;;;18.75;;
28007;SDS011;15333;50.010;20.020;2023-11-21T14:56:43;26.80;;;18.35;;
28007;SDS011;15333;50.010;20.020;2023-11-21T14:59:49;28.63;;;17.98;;
28007;SDS011;15333;50.010;20.020;2023-11-21T15:02:55;29.65;;;19.65;;
28007;SDS011;15333;50.010;20.020;2023-11-21T15:05:56;30.63;;;18.92;;
28007;SDS011;15333;50.010;20.020;2023-11-21T15:08:57;26.67;;;18.58;;
28007;SDS011;15333;50.010;20.020;2023-11-21T15:12:07;30.02;;;19.80;;
28007;SDS011;15333;50.010;20.020;2023-11-21T15:15:15;32.38;;;20.08;;
28007;SDS011;15333;50.010;20.020;2023-11-21T15:18:18;27.60;;;18.30;;
28007;SDS011;15333;50.010;20.020;2023-11-21T15:21:19;31.65;;;19.05;;
28007;SDS011;15333;50.010;20.020;2023-11-21T15:24:22;30.67;;;19.80;;
28007;SDS011;15333;50.010;20.020;2023-11-21T15:27:23;28.63;;;19.50;;
28007;SDS011;15333;50.010;20.020;2023-11-21T15:30:25;30.38;;;19.67;;
28007;SDS011;15333;50.010;20.020;2023-11-21T15:33:26;29.42;;;18.55;;
28007;SDS011;15333;50.010;20.020;2023-11-21T15:36:28;27.95;;;19.13;;
28007;SDS011;15333;50.010;20.020;2023-11-21T15:39:29;33.92;;;20.98;;
28007;SDS011;15333;50.010;20.020;2023-11-21T15:42:32;30.88;;;19.92;;
28007;SDS011;15333;50.010;20.020;2023-11-21T15:45:33;38.45;;;21.67;;
28007;SDS011;15333;50.010;20.020;2023-11-21T15:48:34;34.13;;;23.27;;
28007;SDS011;15333;50.010;20.020;2023-11-21T15:51:36;32.22;;;20.95;;
28007;SDS011;15333;50.010;20.020;2023-11-21T15:54:37;36.97;;;22.23;;
28007;SDS011;15333;50.010;20.020;2023-11-21T15:57:38;41.97;;;26.10;;
28007;SDS011;15333;50.010;20.020;2023-11-21T16:00:39;32.95;;;22.08;;
28007;SDS011;15333;50.010;20.020;2023-11-21T16:03:42;35.40;;;21.48;;
28007;SDS011;15333;50.010;20.020;2023-11-21T16:06:47;37.83;;;22.25;;
28007;SDS011;15333;50.010;20.020;2023-11-21T16:09:48;30.95;;;20.55;;
28007;SDS011;15333;50.010;20.020;2023-11-21T16:12:50;33.05;;;21.20;;
28007;SDS011;15333;50.010;20.020;2023-11-21T16:15:51;32.85;;;22.05;;
28007;SDS011;15333;50.010;20.020;2023-11-21T16:18:53;32.38;;;20.88;;
28007;SDS011;15333;50.010;20.020;2023-11-21T16:21:54;36.63;;;22.48;;
28007;SDS011;15333;50.010;20.020;2023-11-21T16:24:55;36.42;;;21.73;;
28007;SDS011;15333;50.010;20.020;2023-11-21T16:27:56;34.53;;;22.65;;
28007;SDS011;15333;50.010;20.020;2023-11-21T16:31:00;35.42;;;21.88;;
28007;SDS011;15333;50.010;20.020;2023-11-21T16:34:00;38.92;;;22.38;;
28007;SDS011;15333;50.010;20.020;2023-11-21T16:37:05;33.15;;;22.25;;
28007;SDS011;15333;50.010;20.020;2023-11-21T16:40:07;36.03;;;22.30;;
28007;SDS011;15333;50.010;20.020;2023-11-21T16:43:09;37.58;;;24.10;;
28007;SDS011;15333;50.010;20.020;2023-11-21T16:46:11;35.60;;;22.25;;
28007;SDS011;15333;50.010;20.020;2023-11-21T16:49:12;34.50;;;22.20;;
28007;SDS011;15333;50.010;20.020;2023-11-21T16:52:13;38.08;;;23.30;;
28007;SDS011;15333;50.010;20.020;2023-11-21T16:55:15;34.85;;;23.50;;
28007;SDS011;15333;50.010;20.020;2023-11-21T16:58:16;36.80;;;23.33;;
28007;SDS011;15333;50.010;20.020;2023-11-21T17:01:17;42.47;;;24.63;;
28007;SDS011;15333;50.010;20.020;2023-11-21T17:04:18;37.70;;;23.20;;
28007;SDS011;15333;50.010;20.020;2023-11-21T17:07:23;39.90;;;24.65;;
28007;SDS011;15333;50.010;20.020;2023-11-21T17:10:24;44.55;;;26.13;;
28007;SDS011;15333;50.010;20.020;2023-11-21T17:13:24;42.05;;;26.83;;
28007;SDS011;15333;50.010;20.020;2023-11-21T17:16:25;51.88;;;27.17;;
28007;SDS011;15333;50.010;20.020;2023-11-21T17:19:26;45.75;;;26.73;;
28007;SDS011;15333;50.010;20.020;2023-11-21T17:22:31;43.55;;;27.05;;
28007;SDS011;15333;50.010;20.020;2023-11-21T17:25:32;44.40;;;27.63;;
28007;SDS011;15333;50.010;20.020;2023-11-21T17:28:33;42.50;;;27.90;;
28007;SDS011;15333;50.010;20.020;2023-11-21T17:31:34;41.85;;;27.35;;
28007;SDS011;15333;50.010;20.020;2023-11-21T17:34:35;45.42;;;27.77;;
28007;SDS011;15333;50.010;20.020;2023-11-21T17:37:36;43.05;;;27.83;;
28007;SDS011;15333;50.010;20.020;2023-11-21T17:40:36;45.13;;;26.83;;
28007;SDS011;15333;50.010;20.020;2023-11-21T17:43:38;41.17;;;26.63;;
28007;SDS011;15333;50.010;20.020;2023-11-21T17:46:42;43.22;;;28.08;;
28007;SDS011;15333;50.010;20.020;2023-11-21T17:49:43;42.90;;;25.85;;
28007;SDS011;15333;50.010;20.020;2023-11-21T17:52:44;43.92;;;27.20;;